sensor_id;sensor_type;location;lat;lon;timestamp;P1;durP1;ratioP1;P2;durP2;ratioP2
55290;SDS011;41155;39.768;2.712;2024-02-21T00:00:04;34.72;;;19.80;;
55290;SDS011;41155;39.768;2.712;2024-02-21T00:02:30;29.08;;;21.63;;
55290;SDS011;41155;39.768;2.712;2024-02-21T00:04:56;29.55;;;20.23;;
55290;SDS011;41155;39.768;2.712;2024-02-21T00:07:21;24.25;;;17.58;;
55290;SDS011;41155;39.768;2.712;2024-02-21T00:09:47;27.98;;;18.30;;
55290;SDS011;41155;39.768;2.712;2024-02-21T00:12:12;28.75;;;20.33;;
55290;SDS011;41155;39.768;2.712;2024-02-21T00:14:41;30.63;;;20.27;;
55290;SDS011;41155;39.768;2.712;2024-02-21T00:17:06;33.85;;;19.48;;
55290;SDS011;41155;39.768;2.712;2024-02-21T00:19:33;20.67;;;16.77;;
55290;SDS011;41155;39.768;2.712;2024-02-21T00:22:00;21.10;;;16.40;;
55290;SDS011;41155;39.768;2.712;2024-02-21T00:24:25;23.08;;;16.10;;
55290;SDS011;41155;39.768;2.712;2024-02-21T00:26:50;25.25;;;17.73;;
55290;SDS011;41155;39.768;2.712;2024-02-21T00:29:16;28.52;;;18.83;;
55290;SDS011;41155;39.768;2.712;2024-02-21T00:31:41;24.38;;;16.05;;
55290;SDS011;41155;39.768;2.712;2024-02-21T00:34:07;23.25;;;16.60;;
55290;SDS011;41155;39.768;2.712;2024-02-21T00:36:32;28.15;;;17.90;;
55290;SDS011;41155;39.768;2.712;2024-02-21T00:38:58;25.17;;;19.85;;
55290;SDS011;41155;39.768;2.712;2024-02-21T00:41:23;37.33;;;24.85;;
55290;SDS011;41155;39.768;2.712;2024-02-21T00:43:49;27.27;;;16.52;;
55290;SDS011;41155;39.768;2.712;2024-02-21T00:46:15;22.08;;;15.18;;
55290;SDS011;41155;39.768;2.712;2024-02-21T00:48:41;24.75;;;16.60;;
55290;SDS011;41155;39.768;2.712;2024-02-21T00:51:06;21.63;;;15.98;;
55290;SDS011;41155;39.768;2.712;2024-02-21T00:53:31;37.20;;;24.40;;
55290;SDS011;41155;39.768;2.712;2024-02-21T00:55:57;40.75;;;26.58;;
55290;SDS011;41155;39.768;2.712;2024-02-21T00:58:22;39.80;;;27.02;;
55290;SDS011;41155;39.768;2.712;2024-02-21T01:00:48;32.63;;;20.52;;
55290;SDS011;41155;39.768;2.712;2024-02-21T01:03:14;35.42;;;19.10;;
55290;SDS011;41155;39.768;2.712;2024-02-21T01:05:39;27.02;;;18.25;;
55290;SDS011;41155;39.768;2.712;2024-02-21T01:08:05;31.30;;;19.38;;
55290;SDS011;41155;39.768;2.712;2024-02-21T01:10:31;29.50;;;18.63;;
55290;SDS011;41155;39.768;2.712;2024-02-21T01:12:56;34.80;;;19.38;;
55290;SDS011;41155;39.768;2.712;2024-02-21T01:15:22;30.70;;;18.98;;
55290;SDS011;41155;39.768;2.712;2024-02-21T01:17:47;31.70;;;19.50;;
55290;SDS011;41155;39.768;2.712;2024-02-21T01:20:14;35.25;;;19.80;;
55290;SDS011;41155;39.768;2.712;2024-02-21T01:22:40;29.38;;;21.27;;
55290;SDS011;41155;39.768;2.712;2024-02-21T01:25:05;36.53;;;24.17;;
55290;SDS011;41155;39.768;2.712;2024-02-21T01:27:31;23.20;;;17.95;;
55290;SDS011;41155;39.768;2.712;2024-02-21T01:29:57;25.20;;;16.35;;
55290;SDS011;41155;39.768;2.712;2024-02-21T01:32:22;26.00;;;16.20;;
55290;SDS011;41155;39.768;2.712;2024-02-21T01:34:49;22.63;;;15.88;;
55290;SDS011;41155;39.768;2.712;2024-02-21T01:37:18;19.35;;;15.45;;
55290;SDS011;41155;39.768;2.712;2024-02-21T01:39:43;20.52;;;16.45;;
55290;SDS011;41155;39.768;2.712;2024-02-21T01:42:09;26.35;;;16.13;;
55290;SDS011;41155;39.768;2.712;2024-02-21T01:44:34;25.27;;;16.80;;
55290;SDS011;41155;39.768;2.712;2024-02-21T01:46:59;28.05;;;16.75;;
55290;SDS011;41155;39.768;2.712;2024-02-21T01:49:25;20.35;;;15.15;;
55290;SDS011;41155;39.768;2.712;2024-02-21T01:51:51;19.15;;;14.18;;
55290;SDS011;41155;39.768;2.712;2024-02-21T01:54:18;17.63;;;13.77;;
55290;SDS011;41155;39.768;2.712;2024-02-21T01:56:44;15.07;;;13.35;;
55290;SDS011;41155;39.768;2.712;2024-02-21T01:59:11;20.40;;;14.68;;
55290;SDS011;41155;39.768;2.712;2024-02-21T02:01:38;25.85;;;15.85;;
55290;SDS011;41155;39.768;2.712;2024-02-21T02:04:05;24.33;;;14.70;;
55290;SDS011;41155;39.768;2.712;2024-02-21T02:06:31;25.05;;;16.63;;
55290;SDS011;41155;39.768;2.712;2024-02-21T02:08:57;25.73;;;18.33;;
55290;SDS011;41155;39.768;2.712;2024-02-21T02:11:22;32.17;;;20.30;;
55290;SDS011;41155;39.768;2.712;2024-02-21T02:13:48;25.70;;;18.08;;
55290;SDS011;41155;39.768;2.712;2024-02-21T02:16:13;24.85;;;16.98;;
55290;SDS011;41155;39.768;2.712;2024-02-21T02:18:39;20.38;;;15.43;;
55290;SDS011;41155;39.768;2.712;2024-02-21T02:21:04;23.13;;;15.48;;
55290;SDS011;41155;39.768;2.712;2024-02-21T02:23:37;20.85;;;14.68;;
55290;SDS011;41155;39.768;2.712;2024-02-21T02:26:03;20.02;;;13.82;;
55290;SDS011;41155;39.768;2.712;2024-02-21T02:28:28;16.38;;;13.32;;
55290;SDS011;41155;39.768;2.712;2024-02-21T02:30:54;19.48;;;13.57;;
55290;SDS011;41155;39.768;2.712;2024-02-21T02:33:19;21.02;;;14.25;;
55290;SDS011;41155;39.768;2.712;2024-02-21T02:35:45;22.52;;;14.65;;
55290;SDS011;41155;39.768;2.712;2024-02-21T02:38:11;16.88;;;13.05;;
55290;SDS011;41155;39.768;2.712;2024-02-21T02:40:38;20.23;;;12.85;;
55290;SDS011;41155;39.768;2.712;2024-02-21T02:43:04;21.17;;;12.38;;
55290;SDS011;41155;39.768;2.712;2024-02-21T02:45:29;15.55;;;11.80;;
55290;SDS011;41155;39.768;2.712;2024-02-21T02:47:56;18.02;;;11.85;;
55290;SDS011;41155;39.768;2.712;2024-02-21T02:50:25;16.65;;;12.02;;
55290;SDS011;41155;39.768;2.712;2024-02-21T02:52:52;20.08;;;15.38;;
55290;SDS011;41155;39.768;2.712;2024-02-21T02:55:18;22.08;;;17.65;;
55290;SDS011;41155;39.768;2.712;2024-02-21T02:57:44;16.23;;;13.07;;
55290;SDS011;41155;39.768;2.712;2024-02-21T03:00:13;13.65;;;11.00;;
55290;SDS011;41155;39.768;2.712;2024-02-21T03:02:40;15.15;;;11.38;;
55290;SDS011;41155;39.768;2.712;2024-02-21T03:05:19;15.00;;;11.07;;
55290;SDS011;41155;39.768;2.712;2024-02-21T03:07:46;15.60;;;12.02;;
55290;SDS011;41155;39.768;2.712;2024-02-21T03:10:13;19.55;;;11.85;;
55290;SDS011;41155;39.768;2.712;2024-02-21T03:12:39;15.20;;;11.88;;
55290;SDS011;41155;39.768;2.712;2024-02-21T03:15:05;13.68;;;12.13;;
55290;SDS011;41155;39.768;2.712;2024-02-21T03:17:31;15.00;;;11.52;;
55290;SDS011;41155;39.768;2.712;2024-02-21T03:19:59;15.73;;;11.57;;
55290;SDS011;41155;39.768;2.712;2024-02-21T03:22:25;22.13;;;11.60;;
55290;SDS011;41155;39.768;2.712;2024-02-21T03:24:50;16.13;;;12.48;;
55290;SDS011;41155;39.768;2.712;2024-02-21T03:27:16;16.90;;;11.77;;
55290;SDS011;41155;39.768;2.712;2024-02-21T03:29:42;13.20;;;11.80;;
55290;SDS011;41155;39.768;2.712;2024-02-21T03:32:07;16.23;;;12.77;;
55290;SDS011;41155;39.768;2.712;2024-02-21T03:34:33;18.40;;;12.82;;
55290;SDS011;41155;39.768;2.712;2024-02-21T03:36:58;17.17;;;12.38;;
55290;SDS011;41155;39.768;2.712;2024-02-21T03:39:24;14.18;;;11.77;;
55290;SDS011;41155;39.768;2.712;2024-02-21T03:41:49;19.52;;;12.20;;
55290;SDS011;41155;39.768;2.712;2024-02-21T03:44:15;16.13;;;11.85;;
55290;SDS011;41155;39.768;2.712;2024-02-21T03:46:40;15.85;;;11.60;;
55290;SDS011;41155;39.768;2.712;2024-02-21T03:49:06;12.70;;;11.32;;
55290;SDS011;41155;39.768;2.712;2024-02-21T03:51:32;16.00;;;10.82;;
55290;SDS011;41155;39.768;2.712;2024-02-21T03:53:57;16.80;;;11.55;;
55290;SDS011;41155;39.768;2.712;2024-02-21T03:56:23;15.75;;;11.27;;
55290;SDS011;41155;39.768;2.712;2024-02-21T03:58:49;18.35;;;11.50;;
55290;SDS011;41155;39.768;2.712;2024-02-21T04:01:15;22.67;;;15.43;;
55290;SDS011;41155;39.768;2.712;2024-02-21T04:03:42;30.17;;;18.73;;
55290;SDS011;41155;39.768;2.712;2024-02-21T04:06:08;41.10;;;20.73;;
55290;SDS011;41155;39.768;2.712;2024-02-21T04:08:34;30.05;;;16.58;;
55290;SDS011;41155;39.768;2.712;2024-02-21T04:11:00;21.33;;;16.05;;
55290;SDS011;41155;39.768;2.712;2024-02-21T04:13:25;17.92;;;13.60;;
55290;SDS011;41155;39.768;2.712;2024-02-21T04:15:51;21.27;;;15.10;;
55290;SDS011;41155;39.768;2.712;2024-02-21T04:18:17;21.58;;;13.80;;
55290;SDS011;41155;39.768;2.712;2024-02-21T04:20:42;22.52;;;13.85;;
55290;SDS011;41155;39.768;2.712;2024-02-21T04:23:08;20.00;;;14.50;;
55290;SDS011;41155;39.768;2.712;2024-02-21T04:25:34;13.57;;;12.15;;
55290;SDS011;41155;39.768;2.712;2024-02-21T04:27:59;18.60;;;11.45;;
55290;SDS011;41155;39.768;2.712;2024-02-21T04:30:25;18.40;;;11.82;;
55290;SDS011;41155;39.768;2.712;2024-02-21T04:32:51;14.73;;;11.25;;
55290;SDS011;41155;39.768;2.712;2024-02-21T04:35:16;21.05;;;11.93;;
55290;SDS011;41155;39.768;2.712;2024-02-21T04:37:42;12.85;;;11.10;;
55290;SDS011;41155;39.768;2.712;2024-02-21T04:40:07;16.35;;;11.93;;
55290;SDS011;41155;39.768;2.712;2024-02-21T04:42:34;21.27;;;13.20;;
55290;SDS011;41155;39.768;2.712;2024-02-21T04:45:00;16.05;;;12.73;;
55290;SDS011;41155;39.768;2.712;2024-02-21T04:47:25;15.32;;;13.15;;
55290;SDS011;41155;39.768;2.712;2024-02-21T04:49:51;17.65;;;14.02;;
55290;SDS011;41155;39.768;2.712;2024-02-21T04:52:17;15.63;;;13.20;;
55290;SDS011;41155;39.768;2.712;2024-02-21T04:54:42;22.90;;;13.45;;
55290;SDS011;41155;39.768;2.712;2024-02-21T04:57:08;14.02;;;12.52;;
55290;SDS011;41155;39.768;2.712;2024-02-21T04:59:35;16.73;;;13.38;;
55290;SDS011;41155;39.768;2.712;2024-02-21T05:02:01;17.35;;;12.23;;
55290;SDS011;41155;39.768;2.712;2024-02-21T05:04:26;22.33;;;13.23;;
55290;SDS011;41155;39.768;2.712;2024-02-21T05:06:52;28.65;;;13.75;;
55290;SDS011;41155;39.768;2.712;2024-02-21T05:09:17;19.27;;;14.68;;
55290;SDS011;41155;39.768;2.712;2024-02-21T05:11:43;25.02;;;14.05;;
55290;SDS011;41155;39.768;2.712;2024-02-21T05:14:08;21.08;;;14.95;;
55290;SDS011;41155;39.768;2.712;2024-02-21T05:16:34;19.58;;;13.45;;
55290;SDS011;41155;39.768;2.712;2024-02-21T05:18:59;23.08;;;13.30;;
55290;SDS011;41155;39.768;2.712;2024-02-21T05:21:25;19.52;;;13.00;;
55290;SDS011;41155;39.768;2.712;2024-02-21T05:23:53;17.88;;;12.20;;
55290;SDS011;41155;39.768;2.712;2024-02-21T05:26:24;13.38;;;11.98;;
55290;SDS011;41155;39.768;2.712;2024-02-21T05:28:51;14.25;;;12.05;;
55290;SDS011;41155;39.768;2.712;2024-02-21T05:31:20;20.40;;;12.68;;
55290;SDS011;41155;39.768;2.712;2024-02-21T05:33:46;17.00;;;12.43;;
55290;SDS011;41155;39.768;2.712;2024-02-21T05:36:12;13.43;;;11.82;;
55290;SDS011;41155;39.768;2.712;2024-02-21T05:38:38;14.48;;;11.75;;
55290;SDS011;41155;39.768;2.712;2024-02-21T05:41:03;19.05;;;12.23;;
55290;SDS011;41155;39.768;2.712;2024-02-21T05:43:29;13.52;;;12.05;;
55290;SDS011;41155;39.768;2.712;2024-02-21T05:45:55;13.70;;;11.55;;
55290;SDS011;41155;39.768;2.712;2024-02-21T05:48:21;20.52;;;12.77;;
55290;SDS011;41155;39.768;2.712;2024-02-21T05:50:47;21.60;;;13.60;;
55290;SDS011;41155;39.768;2.712;2024-02-21T05:53:13;15.88;;;12.63;;
55290;SDS011;41155;39.768;2.712;2024-02-21T05:55:38;18.80;;;12.65;;
55290;SDS011;41155;39.768;2.712;2024-02-21T05:58:04;19.27;;;13.70;;
55290;SDS011;41155;39.768;2.712;2024-02-21T06:00:31;16.48;;;14.27;;
55290;SDS011;41155;39.768;2.712;2024-02-21T06:02:57;18.13;;;14.18;;
55290;SDS011;41155;39.768;2.712;2024-02-21T06:05:23;23.90;;;14.43;;
55290;SDS011;41155;39.768;2.712;2024-02-21T06:07:49;23.85;;;14.60;;
55290;SDS011;41155;39.768;2.712;2024-02-21T06:10:14;22.15;;;14.63;;
55290;SDS011;41155;39.768;2.712;2024-02-21T06:12:40;17.20;;;15.43;;
55290;SDS011;41155;39.768;2.712;2024-02-21T06:15:05;20.67;;;14.70;;
55290;SDS011;41155;39.768;2.712;2024-02-21T06:17:31;26.92;;;14.02;;
55290;SDS011;41155;39.768;2.712;2024-02-21T06:19:57;32.55;;;13.57;;
55290;SDS011;41155;39.768;2.712;2024-02-21T06:22:23;22.27;;;14.13;;
55290;SDS011;41155;39.768;2.712;2024-02-21T06:24:48;25.85;;;14.40;;
55290;SDS011;41155;39.768;2.712;2024-02-21T06:27:15;24.33;;;16.25;;
55290;SDS011;41155;39.768;2.712;2024-02-21T06:29:41;31.67;;;16.85;;
55290;SDS011;41155;39.768;2.712;2024-02-21T06:32:07;42.70;;;19.90;;
55290;SDS011;41155;39.768;2.712;2024-02-21T06:34:33;33.72;;;21.13;;
55290;SDS011;41155;39.768;2.712;2024-02-21T06:36:58;23.23;;;17.85;;
55290;SDS011;41155;39.768;2.712;2024-02-21T06:39:24;30.80;;;17.55;;
55290;SDS011;41155;39.768;2.712;2024-02-21T06:41:49;44.95;;;19.73;;
55290;SDS011;41155;39.768;2.712;2024-02-21T06:44:19;26.70;;;19.75;;
55290;SDS011;41155;39.768;2.712;2024-02-21T06:46:45;34.55;;;20.08;;
55290;SDS011;41155;39.768;2.712;2024-02-21T06:49:10;25.17;;;17.88;;
55290;SDS011;41155;39.768;2.712;2024-02-21T06:51:43;27.42;;;18.15;;
55290;SDS011;41155;39.768;2.712;2024-02-21T06:54:09;24.77;;;17.30;;
55290;SDS011;41155;39.768;2.712;2024-02-21T06:56:35;30.58;;;19.15;;
55290;SDS011;41155;39.768;2.712;2024-02-21T06:59:02;30.67;;;18.67;;
55290;SDS011;41155;39.768;2.712;2024-02-21T07:01:30;38.90;;;19.90;;
55290;SDS011;41155;39.768;2.712;2024-02-21T07:03:56;33.40;;;20.45;;
55290;SDS011;41155;39.768;2.712;2024-02-21T07:06:22;27.48;;;19.35;;
55290;SDS011;41155;39.768;2.712;2024-02-21T07:08:47;35.05;;;18.63;;
55290;SDS011;41155;39.768;2.712;2024-02-21T07:11:13;52.33;;;18.58;;
55290;SDS011;41155;39.768;2.712;2024-02-21T07:13:38;30.58;;;16.52;;
55290;SDS011;41155;39.768;2.712;2024-02-21T07:16:04;25.20;;;16.52;;
55290;SDS011;41155;39.768;2.712;2024-02-21T07:18:30;21.55;;;16.42;;
55290;SDS011;41155;39.768;2.712;2024-02-21T07:20:55;46.83;;;19.67;;
55290;SDS011;41155;39.768;2.712;2024-02-21T07:23:21;30.73;;;17.50;;
55290;SDS011;41155;39.768;2.712;2024-02-21T07:25:47;25.90;;;15.77;;
55290;SDS011;41155;39.768;2.712;2024-02-21T07:28:12;42.20;;;16.40;;
55290;SDS011;41155;39.768;2.712;2024-02-21T07:30:39;31.85;;;17.83;;
55290;SDS011;41155;39.768;2.712;2024-02-21T07:33:04;27.70;;;17.48;;
55290;SDS011;41155;39.768;2.712;2024-02-21T07:35:32;49.35;;;21.80;;
55290;SDS011;41155;39.768;2.712;2024-02-21T07:37:57;92.07;;;40.10;;
55290;SDS011;41155;39.768;2.712;2024-02-21T07:40:23;114.60;;;62.67;;
55290;SDS011;41155;39.768;2.712;2024-02-21T07:42:49;229.80;;;167.57;;
55290;SDS011;41155;39.768;2.712;2024-02-21T07:45:14;224.35;;;160.80;;
55290;SDS011;41155;39.768;2.712;2024-02-21T07:47:39;192.75;;;136.38;;
55290;SDS011;41155;39.768;2.712;2024-02-21T07:50:05;150.98;;;101.60;;
55290;SDS011;41155;39.768;2.712;2024-02-21T07:52:32;109.75;;;56.85;;
55290;SDS011;41155;39.768;2.712;2024-02-21T07:54:57;91.20;;;42.25;;
55290;SDS011;41155;39.768;2.712;2024-02-21T07:57:23;61.78;;;31.00;;
55290;SDS011;41155;39.768;2.712;2024-02-21T07:59:48;66.95;;;31.67;;
55290;SDS011;41155;39.768;2.712;2024-02-21T08:02:14;80.20;;;30.88;;
55290;SDS011;41155;39.768;2.712;2024-02-21T08:04:40;70.47;;;29.63;;
55290;SDS011;41155;39.768;2.712;2024-02-21T08:07:06;56.72;;;30.10;;
55290;SDS011;41155;39.768;2.712;2024-02-21T08:09:31;91.65;;;31.25;;
55290;SDS011;41155;39.768;2.712;2024-02-21T08:11:57;73.13;;;33.13;;
55290;SDS011;41155;39.768;2.712;2024-02-21T08:14:23;69.50;;;35.25;;
55290;SDS011;41155;39.768;2.712;2024-02-21T08:16:50;58.67;;;27.73;;
55290;SDS011;41155;39.768;2.712;2024-02-21T08:19:16;68.10;;;28.60;;
55290;SDS011;41155;39.768;2.712;2024-02-21T08:21:42;67.80;;;29.90;;
55290;SDS011;41155;39.768;2.712;2024-02-21T08:24:07;57.08;;;31.42;;
55290;SDS011;41155;39.768;2.712;2024-02-21T08:26:33;86.57;;;40.90;;
55290;SDS011;41155;39.768;2.712;2024-02-21T08:28:58;183.38;;;113.70;;
55290;SDS011;41155;39.768;2.712;2024-02-21T08:31:25;295.63;;;213.00;;
55290;SDS011;41155;39.768;2.712;2024-02-21T08:33:56;173.07;;;110.68;;
55290;SDS011;41155;39.768;2.712;2024-02-21T08:36:29;64.10;;;40.40;;
55290;SDS011;41155;39.768;2.712;2024-02-21T08:38:56;58.47;;;27.33;;
55290;SDS011;41155;39.768;2.712;2024-02-21T08:41:23;58.10;;;25.27;;
55290;SDS011;41155;39.768;2.712;2024-02-21T08:43:50;60.75;;;27.73;;
55290;SDS011;41155;39.768;2.712;2024-02-21T08:46:16;40.05;;;26.60;;
55290;SDS011;41155;39.768;2.712;2024-02-21T08:48:42;40.42;;;23.75;;
55290;SDS011;41155;39.768;2.712;2024-02-21T08:51:08;49.20;;;28.48;;
55290;SDS011;41155;39.768;2.712;2024-02-21T08:53:34;46.72;;;28.83;;
55290;SDS011;41155;39.768;2.712;2024-02-21T08:55:59;46.65;;;30.98;;
55290;SDS011;41155;39.768;2.712;2024-02-21T08:58:25;13.50;;;7.78;;
55290;SDS011;41155;39.768;2.712;2024-02-21T09:00:51;16.27;;;7.78;;
55290;SDS011;41155;39.768;2.712;2024-02-21T09:03:17;51.28;;;34.47;;
55290;SDS011;41155;39.768;2.712;2024-02-21T09:05:45;39.50;;;24.20;;
55290;SDS011;41155;39.768;2.712;2024-02-21T09:08:11;39.35;;;27.88;;
55290;SDS011;41155;39.768;2.712;2024-02-21T09:10:37;40.95;;;25.23;;
55290;SDS011;41155;39.768;2.712;2024-02-21T09:13:02;39.58;;;22.25;;
55290;SDS011;41155;39.768;2.712;2024-02-21T09:15:28;31.33;;;17.85;;
55290;SDS011;41155;39.768;2.712;2024-02-21T09:17:54;41.97;;;16.60;;
55290;SDS011;41155;39.768;2.712;2024-02-21T09:20:19;215.15;;;133.65;;
55290;SDS011;41155;39.768;2.712;2024-02-21T09:22:48;38.60;;;17.27;;
55290;SDS011;41155;39.768;2.712;2024-02-21T09:25:13;17.08;;;8.77;;
55290;SDS011;41155;39.768;2.712;2024-02-21T09:27:39;13.13;;;7.47;;
55290;SDS011;41155;39.768;2.712;2024-02-21T09:30:05;8.18;;;6.35;;
55290;SDS011;41155;39.768;2.712;2024-02-21T09:32:31;25.08;;;7.55;;
55290;SDS011;41155;39.768;2.712;2024-02-21T09:34:58;13.60;;;8.20;;
55290;SDS011;41155;39.768;2.712;2024-02-21T09:37:23;9.85;;;7.45;;
55290;SDS011;41155;39.768;2.712;2024-02-21T09:39:49;7.93;;;7.13;;
55290;SDS011;41155;39.768;2.712;2024-02-21T09:42:16;12.18;;;6.53;;
55290;SDS011;41155;39.768;2.712;2024-02-21T09:44:45;6.10;;;5.53;;
55290;SDS011;41155;39.768;2.712;2024-02-21T09:47:12;13.65;;;5.85;;
55290;SDS011;41155;39.768;2.712;2024-02-21T09:49:49;5.03;;;4.30;;
55290;SDS011;41155;39.768;2.712;2024-02-21T09:52:15;10.35;;;4.82;;
55290;SDS011;41155;39.768;2.712;2024-02-21T09:54:42;13.05;;;5.00;;
55290;SDS011;41155;39.768;2.712;2024-02-21T09:57:09;10.05;;;5.43;;
55290;SDS011;41155;39.768;2.712;2024-02-21T09:59:35;7.40;;;5.38;;
55290;SDS011;41155;39.768;2.712;2024-02-21T10:02:02;7.03;;;4.93;;
55290;SDS011;41155;39.768;2.712;2024-02-21T10:04:29;9.73;;;5.85;;
55290;SDS011;41155;39.768;2.712;2024-02-21T10:06:55;6.82;;;5.72;;
55290;SDS011;41155;39.768;2.712;2024-02-21T10:09:26;9.18;;;6.53;;
55290;SDS011;41155;39.768;2.712;2024-02-21T10:11:53;12.55;;;7.40;;
55290;SDS011;41155;39.768;2.712;2024-02-21T10:14:19;10.60;;;7.45;;
55290;SDS011;41155;39.768;2.712;2024-02-21T10:16:46;10.05;;;7.32;;
55290;SDS011;41155;39.768;2.712;2024-02-21T10:19:16;11.13;;;8.32;;
55290;SDS011;41155;39.768;2.712;2024-02-21T10:21:58;14.15;;;8.13;;
55290;SDS011;41155;39.768;2.712;2024-02-21T10:24:32;29.20;;;8.88;;
55290;SDS011;41155;39.768;2.712;2024-02-21T10:27:02;149.27;;;15.88;;
55290;SDS011;41155;39.768;2.712;2024-02-21T10:29:31;157.85;;;15.75;;
55290;SDS011;41155;39.768;2.712;2024-02-21T10:35:00;20.52;;;8.45;;
55290;SDS011;41155;39.768;2.712;2024-02-21T10:37:26;16.50;;;6.97;;
55290;SDS011;41155;39.768;2.712;2024-02-21T10:39:53;58.40;;;8.43;;
55290;SDS011;41155;39.768;2.712;2024-02-21T10:42:18;23.45;;;7.53;;
55290;SDS011;41155;39.768;2.712;2024-02-21T10:44:46;11.38;;;6.25;;
55290;SDS011;41155;39.768;2.712;2024-02-21T10:47:17;9.93;;;7.05;;
55290;SDS011;41155;39.768;2.712;2024-02-21T10:49:46;10.00;;;6.75;;
55290;SDS011;41155;39.768;2.712;2024-02-21T10:55:26;16.85;;;7.13;;
55290;SDS011;41155;39.768;2.712;2024-02-21T10:58:03;11.60;;;6.45;;
55290;SDS011;41155;39.768;2.712;2024-02-21T11:00:30;14.77;;;7.25;;
55290;SDS011;41155;39.768;2.712;2024-02-21T11:02:57;8.65;;;7.30;;
55290;SDS011;41155;39.768;2.712;2024-02-21T11:05:24;19.50;;;6.45;;
55290;SDS011;41155;39.768;2.712;2024-02-21T11:07:50;11.90;;;6.70;;
55290;SDS011;41155;39.768;2.712;2024-02-21T11:10:20;13.45;;;7.75;;
55290;SDS011;41155;39.768;2.712;2024-02-21T11:12:52;20.08;;;7.05;;
55290;SDS011;41155;39.768;2.712;2024-02-21T11:15:18;20.23;;;8.13;;
55290;SDS011;41155;39.768;2.712;2024-02-21T11:17:53;13.18;;;7.28;;
55290;SDS011;41155;39.768;2.712;2024-02-21T11:20:20;15.02;;;8.50;;
55290;SDS011;41155;39.768;2.712;2024-02-21T11:22:46;20.77;;;13.55;;
55290;SDS011;41155;39.768;2.712;2024-02-21T11:25:13;28.77;;;15.45;;
55290;SDS011;41155;39.768;2.712;2024-02-21T11:27:46;33.15;;;15.13;;
55290;SDS011;41155;39.768;2.712;2024-02-21T11:30:12;29.92;;;13.00;;
55290;SDS011;41155;39.768;2.712;2024-02-21T11:32:39;37.70;;;12.25;;
55290;SDS011;41155;39.768;2.712;2024-02-21T11:35:06;15.60;;;9.00;;
55290;SDS011;41155;39.768;2.712;2024-02-21T11:37:32;16.63;;;9.27;;
55290;SDS011;41155;39.768;2.712;2024-02-21T11:39:59;15.82;;;8.18;;
55290;SDS011;41155;39.768;2.712;2024-02-21T11:42:26;18.90;;;8.38;;
55290;SDS011;41155;39.768;2.712;2024-02-21T11:44:52;22.50;;;9.45;;
55290;SDS011;41155;39.768;2.712;2024-02-21T11:47:18;17.02;;;6.28;;
55290;SDS011;41155;39.768;2.712;2024-02-21T11:49:47;19.13;;;5.45;;
55290;SDS011;41155;39.768;2.712;2024-02-21T11:52:15;13.55;;;5.85;;
55290;SDS011;41155;39.768;2.712;2024-02-21T11:54:43;16.00;;;5.80;;
55290;SDS011;41155;39.768;2.712;2024-02-21T11:57:09;11.65;;;6.00;;
55290;SDS011;41155;39.768;2.712;2024-02-21T11:59:36;26.40;;;6.18;;
55290;SDS011;41155;39.768;2.712;2024-02-21T12:02:02;22.77;;;6.57;;
55290;SDS011;41155;39.768;2.712;2024-02-21T12:04:29;15.05;;;5.43;;
55290;SDS011;41155;39.768;2.712;2024-02-21T12:06:56;22.33;;;7.32;;
55290;SDS011;41155;39.768;2.712;2024-02-21T12:09:23;15.90;;;6.93;;
55290;SDS011;41155;39.768;2.712;2024-02-21T12:11:59;13.43;;;6.47;;
55290;SDS011;41155;39.768;2.712;2024-02-21T12:14:27;22.40;;;6.25;;
55290;SDS011;41155;39.768;2.712;2024-02-21T12:16:53;15.82;;;5.97;;
55290;SDS011;41155;39.768;2.712;2024-02-21T12:19:19;30.90;;;9.98;;
55290;SDS011;41155;39.768;2.712;2024-02-21T12:21:45;20.27;;;9.50;;
55290;SDS011;41155;39.768;2.712;2024-02-21T12:24:15;19.95;;;10.02;;
55290;SDS011;41155;39.768;2.712;2024-02-21T12:26:43;19.15;;;7.45;;
55290;SDS011;41155;39.768;2.712;2024-02-21T12:29:08;11.20;;;6.47;;
55290;SDS011;41155;39.768;2.712;2024-02-21T12:31:37;16.20;;;7.55;;
55290;SDS011;41155;39.768;2.712;2024-02-21T12:34:03;16.63;;;6.70;;
55290;SDS011;41155;39.768;2.712;2024-02-21T12:36:32;10.80;;;6.28;;
55290;SDS011;41155;39.768;2.712;2024-02-21T12:38:58;8.93;;;5.00;;
55290;SDS011;41155;39.768;2.712;2024-02-21T12:41:25;12.13;;;5.50;;
55290;SDS011;41155;39.768;2.712;2024-02-21T12:43:52;8.45;;;5.53;;
55290;SDS011;41155;39.768;2.712;2024-02-21T12:46:18;13.63;;;5.47;;
55290;SDS011;41155;39.768;2.712;2024-02-21T12:48:43;10.80;;;5.32;;
55290;SDS011;41155;39.768;2.712;2024-02-21T12:51:09;13.75;;;6.07;;
55290;SDS011;41155;39.768;2.712;2024-02-21T12:53:34;15.45;;;6.65;;
55290;SDS011;41155;39.768;2.712;2024-02-21T12:56:00;10.13;;;5.68;;
55290;SDS011;41155;39.768;2.712;2024-02-21T12:58:26;16.77;;;5.55;;
55290;SDS011;41155;39.768;2.712;2024-02-21T13:00:51;12.00;;;6.20;;
55290;SDS011;41155;39.768;2.712;2024-02-21T13:03:17;8.90;;;5.50;;
55290;SDS011;41155;39.768;2.712;2024-02-21T13:05:43;19.60;;;5.40;;
55290;SDS011;41155;39.768;2.712;2024-02-21T13:08:08;10.18;;;4.90;;
55290;SDS011;41155;39.768;2.712;2024-02-21T13:10:34;9.32;;;4.90;;
55290;SDS011;41155;39.768;2.712;2024-02-21T13:13:00;12.77;;;5.55;;
55290;SDS011;41155;39.768;2.712;2024-02-21T13:15:26;12.63;;;5.47;;
55290;SDS011;41155;39.768;2.712;2024-02-21T13:17:53;9.52;;;5.53;;
55290;SDS011;41155;39.768;2.712;2024-02-21T13:20:19;9.82;;;5.50;;
55290;SDS011;41155;39.768;2.712;2024-02-21T13:22:44;9.77;;;5.40;;
55290;SDS011;41155;39.768;2.712;2024-02-21T13:25:10;12.57;;;5.35;;
55290;SDS011;41155;39.768;2.712;2024-02-21T13:27:36;13.18;;;5.40;;
55290;SDS011;41155;39.768;2.712;2024-02-21T13:30:02;8.77;;;5.05;;
55290;SDS011;41155;39.768;2.712;2024-02-21T13:32:31;17.77;;;5.35;;
55290;SDS011;41155;39.768;2.712;2024-02-21T13:34:57;9.63;;;5.32;;
55290;SDS011;41155;39.768;2.712;2024-02-21T13:37:26;13.13;;;5.43;;
55290;SDS011;41155;39.768;2.712;2024-02-21T13:39:52;9.30;;;4.78;;
55290;SDS011;41155;39.768;2.712;2024-02-21T13:42:17;9.27;;;4.97;;
55290;SDS011;41155;39.768;2.712;2024-02-21T13:44:44;16.17;;;5.93;;
55290;SDS011;41155;39.768;2.712;2024-02-21T13:47:10;8.82;;;4.88;;
55290;SDS011;41155;39.768;2.712;2024-02-21T13:49:38;7.25;;;4.80;;
55290;SDS011;41155;39.768;2.712;2024-02-21T13:52:04;14.77;;;5.47;;
55290;SDS011;41155;39.768;2.712;2024-02-21T13:54:29;10.32;;;5.00;;
55290;SDS011;41155;39.768;2.712;2024-02-21T13:56:55;19.05;;;5.88;;
55290;SDS011;41155;39.768;2.712;2024-02-21T13:59:20;9.43;;;4.82;;
55290;SDS011;41155;39.768;2.712;2024-02-21T14:01:46;7.18;;;4.95;;
55290;SDS011;41155;39.768;2.712;2024-02-21T14:04:11;12.80;;;4.93;;
55290;SDS011;41155;39.768;2.712;2024-02-21T14:06:37;10.63;;;5.70;;
55290;SDS011;41155;39.768;2.712;2024-02-21T14:09:08;5.55;;;4.00;;
55290;SDS011;41155;39.768;2.712;2024-02-21T14:11:36;14.30;;;5.32;;
55290;SDS011;41155;39.768;2.712;2024-02-21T14:14:03;6.85;;;5.10;;
55290;SDS011;41155;39.768;2.712;2024-02-21T14:16:32;10.52;;;5.93;;
55290;SDS011;41155;39.768;2.712;2024-02-21T14:18:58;9.98;;;4.75;;
55290;SDS011;41155;39.768;2.712;2024-02-21T14:21:23;12.35;;;5.25;;
55290;SDS011;41155;39.768;2.712;2024-02-21T14:23:49;12.75;;;5.40;;
55290;SDS011;41155;39.768;2.712;2024-02-21T14:26:14;14.55;;;5.13;;